Meteo Giornale » Osservazioni meteo Germania » Wiesbaden

ore: 02:56 - Osservazioni Meteo Wiesbaden
Lat. 50° 3' N Lon. 8° 20' E Alt. 140 metri s.l.m.

sereno Europe/Berlin

15 °C

Sereno

Temp. 24 Ore

15 °C

26 °C

Nord/Nord-Est

13 Km/h

Dew point 13 °C

Umidità 87 %

Visibilità  10 Km

Il sole sorge alle ore 05:15

Il sole tramonta alle ore 21:42

Data e Ora Cielo e Fenomeni T °C DP °C Um. % Pres. hPa Vis. km Vento km/h
Oggi h: 02:56 sereno Sereno 15 13 87 1011 10 N/NE 13
Oggi h: 02:52 sereno Sereno 15 13 87 1011 10 N/NE 11.1
Oggi h: 02:51 coperto_pioggia Pioviggine Leggera 15 13 87 1011 10 N/NE 11.1
Oggi h: 02:25 nuvoloso Nuvoloso 15 13 87 1011 10 N 9.3
Oggi h: 02:20 molto_nuvoloso Molto Nuvoloso 15 13 87 1012 10 N/NO 11.1
Oggi h: 01:56 coperto_pioggia Pioviggine Leggera 16 14 87 1012 10 N 0
Oggi h: 00:56 coperto_pioggia Pioggia Debole 17 12 72 1012 10 N 7.4
Oggi h: 00:47 coperto_pioggia Pioggia Debole 17 12 72 1012 10 N 9.3
Ieri h: 23:56 sereno Sereno 17 12 72 1011 10 N 13
Ieri h: 22:56 sereno Sereno 17 13 77 1011 10 N 11.1
Ieri h: 21:56 sereno Sereno 18 13 72 1010 10 N/NO 14.8
Ieri h: 20:56 sereno Sereno 19 13 68 1009 10 N 22.2
Ieri h: 19:56 sereno Sereno 22 14 60 1009 10 N 18.5
Ieri h: 18:56 sereno Sereno 24 15 57 1008 10 N/NE 20.3
Ieri h: 17:56 poco_nuvoloso Poco Nuvoloso 25 16 57 1008 10 N 18.5
Ieri h: 16:56 nuvoloso Nuvoloso 26 15 50 1008 10 O 11.1
Ieri h: 15:56 molto_nuvoloso Molto Nuvoloso 24 15 57 1008 10 O/SO 13
Ieri h: 14:56 poco_nuvoloso Poco Nuvoloso 25 15 53 1008 10 O 20.3
Ieri h: 14:48 nuvoloso Nuvoloso 25 15 53 1008 10 O 20.3
Ieri h: 13:56 nuvoloso Nuvoloso 24 15 57 1008 10 SO 20.3
Ieri h: 12:56 nuvoloso Nuvoloso 23 15 60 1008 10 SO 20.3
Ieri h: 11:56 coperto Coperto 22 16 68 1008 10 SO 16.7
Ieri h: 11:26 molto_nuvoloso Molto Nuvoloso 22 15 64 1008 10 O/SO 18.5
Ieri h: 11:16 coperto Coperto 21 15 68 1008 10 SO 24
Ieri h: 10:56 molto_nuvoloso Molto Nuvoloso 21 15 68 1008 10 O/SO 24
Ieri h: 10:31 molto_nuvoloso Molto Nuvoloso 21 16 73 1007 10 SO 22.2
Ieri h: 09:56 molto_nuvoloso Molto Nuvoloso 21 16 73 1007 10 S/SO 22.2
Ieri h: 08:56 molto_nuvoloso Molto Nuvoloso 20 16 77 1007 10 SO 27.8
Ieri h: 08:46 nuvoloso Nuvoloso 19 16 82 1007 10 SO 18.5
Ieri h: 07:56 nuvoloso Nuvoloso 19 16 82 1006 10 SO 16.7
Ieri h: 07:31 coperto Coperto 19 16 82 1006 10 S/SO 16.7
Ieri h: 07:21 coperto Coperto 18 16 88 1007 10 S/SO 14.8
Ieri h: 06:56 coperto Coperto 18 16 88 1007 10 S 11.1
Ieri h: 05:56 coperto Coperto 17 17 100 1006 10 S/SO 9.3
Ieri h: 05:51 coperto Coperto 17 17 100 1006 10 S 11.1
Ieri h: 04:56 coperto Coperto 17 17 100 1006 10 S/SO 11.1
Ieri h: 04:46 molto_nuvoloso Molto Nuvoloso 17 17 100 1006 10 S/SO 11.1
Ieri h: 03:56 sereno Sereno 17 17 100 1006 10 S 7.4